sensor_id;sensor_type;location;lat;lon;timestamp;P1;durP1;ratioP1;P2;durP2;ratioP2
6300;SDS011;3183;51.010;6.898;2022-09-27T00:01:45;5.83;;;3.03;;
6300;SDS011;3183;51.010;6.898;2022-09-27T00:04:12;5.30;;;3.23;;
6300;SDS011;3183;51.010;6.898;2022-09-27T00:06:39;13.00;;;3.50;;
6300;SDS011;3183;51.010;6.898;2022-09-27T00:09:07;5.43;;;2.90;;
6300;SDS011;3183;51.010;6.898;2022-09-27T00:11:34;5.53;;;2.80;;
6300;SDS011;3183;51.010;6.898;2022-09-27T00:14:02;3.80;;;2.70;;
6300;SDS011;3183;51.010;6.898;2022-09-27T00:16:30;6.70;;;2.53;;
6300;SDS011;3183;51.010;6.898;2022-09-27T00:18:59;5.97;;;3.17;;
6300;SDS011;3183;51.010;6.898;2022-09-27T00:21:26;9.10;;;3.53;;
6300;SDS011;3183;51.010;6.898;2022-09-27T00:23:54;8.07;;;3.57;;
6300;SDS011;3183;51.010;6.898;2022-09-27T00:26:22;8.80;;;3.70;;
6300;SDS011;3183;51.010;6.898;2022-09-27T00:28:49;9.03;;;3.43;;
6300;SDS011;3183;51.010;6.898;2022-09-27T00:31:17;12.60;;;3.40;;
6300;SDS011;3183;51.010;6.898;2022-09-27T00:33:45;16.23;;;4.10;;
6300;SDS011;3183;51.010;6.898;2022-09-27T00:36:14;9.53;;;3.90;;
6300;SDS011;3183;51.010;6.898;2022-09-27T00:38:42;9.33;;;3.80;;
6300;SDS011;3183;51.010;6.898;2022-09-27T00:41:11;8.13;;;3.90;;
6300;SDS011;3183;51.010;6.898;2022-09-27T00:43:45;7.17;;;3.03;;
6300;SDS011;3183;51.010;6.898;2022-09-27T00:46:14;9.50;;;4.00;;
6300;SDS011;3183;51.010;6.898;2022-09-27T00:48:43;6.10;;;3.27;;
6300;SDS011;3183;51.010;6.898;2022-09-27T00:51:10;4.47;;;3.03;;
6300;SDS011;3183;51.010;6.898;2022-09-27T00:53:40;4.73;;;3.17;;
6300;SDS011;3183;51.010;6.898;2022-09-27T00:56:11;6.83;;;3.10;;
6300;SDS011;3183;51.010;6.898;2022-09-27T00:58:41;7.87;;;2.87;;
6300;SDS011;3183;51.010;6.898;2022-09-27T01:01:10;8.40;;;3.67;;
6300;SDS011;3183;51.010;6.898;2022-09-27T01:03:39;10.63;;;4.07;;
6300;SDS011;3183;51.010;6.898;2022-09-27T01:06:09;13.83;;;3.60;;
6300;SDS011;3183;51.010;6.898;2022-09-27T01:08:36;9.27;;;4.17;;
6300;SDS011;3183;51.010;6.898;2022-09-27T01:11:09;7.10;;;3.37;;
6300;SDS011;3183;51.010;6.898;2022-09-27T01:13:42;9.20;;;3.70;;
6300;SDS011;3183;51.010;6.898;2022-09-27T01:16:10;8.80;;;3.07;;
6300;SDS011;3183;51.010;6.898;2022-09-27T01:18:40;5.47;;;3.33;;
6300;SDS011;3183;51.010;6.898;2022-09-27T01:24:04;6.37;;;2.73;;
6300;SDS011;3183;51.010;6.898;2022-09-27T01:26:41;10.60;;;2.20;;
6300;SDS011;3183;51.010;6.898;2022-09-27T01:29:12;7.37;;;2.40;;
6300;SDS011;3183;51.010;6.898;2022-09-27T01:31:45;7.27;;;2.63;;
6300;SDS011;3183;51.010;6.898;2022-09-27T01:34:16;3.53;;;1.93;;
6300;SDS011;3183;51.010;6.898;2022-09-27T01:36:46;12.50;;;2.00;;
6300;SDS011;3183;51.010;6.898;2022-09-27T01:39:20;5.53;;;2.43;;
6300;SDS011;3183;51.010;6.898;2022-09-27T01:41:52;11.30;;;2.30;;
6300;SDS011;3183;51.010;6.898;2022-09-27T01:44:22;7.47;;;2.60;;
6300;SDS011;3183;51.010;6.898;2022-09-27T01:46:53;10.23;;;3.23;;
6300;SDS011;3183;51.010;6.898;2022-09-27T01:49:22;6.37;;;3.17;;
6300;SDS011;3183;51.010;6.898;2022-09-27T01:51:52;4.90;;;2.10;;
6300;SDS011;3183;51.010;6.898;2022-09-27T01:54:22;3.97;;;2.40;;
6300;SDS011;3183;51.010;6.898;2022-09-27T01:56:52;7.00;;;2.77;;
6300;SDS011;3183;51.010;6.898;2022-09-27T01:59:21;12.30;;;3.53;;
6300;SDS011;3183;51.010;6.898;2022-09-27T02:01:50;5.07;;;3.20;;
6300;SDS011;3183;51.010;6.898;2022-09-27T02:04:20;6.40;;;3.70;;
6300;SDS011;3183;51.010;6.898;2022-09-27T02:06:49;12.33;;;3.80;;
6300;SDS011;3183;51.010;6.898;2022-09-27T02:09:20;9.90;;;4.00;;
6300;SDS011;3183;51.010;6.898;2022-09-27T02:11:49;8.90;;;4.00;;
6300;SDS011;3183;51.010;6.898;2022-09-27T02:14:20;10.70;;;5.40;;
6300;SDS011;3183;51.010;6.898;2022-09-27T02:16:50;7.73;;;4.10;;
6300;SDS011;3183;51.010;6.898;2022-09-27T02:19:23;12.57;;;4.57;;
6300;SDS011;3183;51.010;6.898;2022-09-27T02:21:54;6.80;;;4.03;;
6300;SDS011;3183;51.010;6.898;2022-09-27T02:24:28;8.30;;;4.57;;
6300;SDS011;3183;51.010;6.898;2022-09-27T02:26:58;8.20;;;3.60;;
6300;SDS011;3183;51.010;6.898;2022-09-27T02:29:28;6.63;;;4.03;;
6300;SDS011;3183;51.010;6.898;2022-09-27T02:31:59;8.13;;;3.83;;
6300;SDS011;3183;51.010;6.898;2022-09-27T02:34:28;6.77;;;4.17;;
6300;SDS011;3183;51.010;6.898;2022-09-27T02:36:57;7.20;;;4.13;;
6300;SDS011;3183;51.010;6.898;2022-09-27T02:39:24;7.70;;;3.83;;
6300;SDS011;3183;51.010;6.898;2022-09-27T02:41:52;5.53;;;3.70;;
6300;SDS011;3183;51.010;6.898;2022-09-27T02:44:22;7.20;;;3.53;;
6300;SDS011;3183;51.010;6.898;2022-09-27T02:46:56;7.13;;;3.67;;
6300;SDS011;3183;51.010;6.898;2022-09-27T02:49:33;4.90;;;3.33;;
6300;SDS011;3183;51.010;6.898;2022-09-27T02:52:05;5.47;;;3.63;;
6300;SDS011;3183;51.010;6.898;2022-09-27T02:54:39;6.70;;;3.63;;
6300;SDS011;3183;51.010;6.898;2022-09-27T02:57:12;9.43;;;3.73;;
6300;SDS011;3183;51.010;6.898;2022-09-27T02:59:46;6.70;;;3.50;;
6300;SDS011;3183;51.010;6.898;2022-09-27T03:02:17;9.97;;;3.03;;
6300;SDS011;3183;51.010;6.898;2022-09-27T03:04:50;7.10;;;3.27;;
6300;SDS011;3183;51.010;6.898;2022-09-27T03:07:19;8.00;;;3.47;;
6300;SDS011;3183;51.010;6.898;2022-09-27T03:09:48;6.80;;;3.20;;
6300;SDS011;3183;51.010;6.898;2022-09-27T03:12:15;8.57;;;3.40;;
6300;SDS011;3183;51.010;6.898;2022-09-27T03:14:46;8.67;;;2.80;;
6300;SDS011;3183;51.010;6.898;2022-09-27T03:17:14;7.03;;;2.80;;
6300;SDS011;3183;51.010;6.898;2022-09-27T03:19:41;7.17;;;2.97;;
6300;SDS011;3183;51.010;6.898;2022-09-27T03:22:10;7.40;;;2.33;;
6300;SDS011;3183;51.010;6.898;2022-09-27T03:24:37;4.70;;;2.70;;
6300;SDS011;3183;51.010;6.898;2022-09-27T03:27:04;2.37;;;1.80;;
6300;SDS011;3183;51.010;6.898;2022-09-27T03:29:31;3.30;;;2.13;;
6300;SDS011;3183;51.010;6.898;2022-09-27T03:31:59;1.73;;;1.53;;
6300;SDS011;3183;51.010;6.898;2022-09-27T03:34:26;5.17;;;1.30;;
6300;SDS011;3183;51.010;6.898;2022-09-27T03:36:53;2.37;;;1.30;;
6300;SDS011;3183;51.010;6.898;2022-09-27T03:39:22;3.67;;;1.50;;
6300;SDS011;3183;51.010;6.898;2022-09-27T03:41:49;4.20;;;1.90;;
6300;SDS011;3183;51.010;6.898;2022-09-27T03:44:17;6.20;;;2.10;;
6300;SDS011;3183;51.010;6.898;2022-09-27T03:46:44;3.23;;;2.10;;
6300;SDS011;3183;51.010;6.898;2022-09-27T03:49:11;2.17;;;1.60;;
6300;SDS011;3183;51.010;6.898;2022-09-27T03:51:38;10.10;;;2.23;;
6300;SDS011;3183;51.010;6.898;2022-09-27T03:54:06;3.93;;;2.40;;
6300;SDS011;3183;51.010;6.898;2022-09-27T03:56:35;2.73;;;1.83;;
6300;SDS011;3183;51.010;6.898;2022-09-27T03:59:02;3.90;;;2.00;;
6300;SDS011;3183;51.010;6.898;2022-09-27T04:01:29;9.33;;;3.10;;
6300;SDS011;3183;51.010;6.898;2022-09-27T04:03:56;6.87;;;2.40;;
6300;SDS011;3183;51.010;6.898;2022-09-27T04:06:24;5.70;;;2.50;;
6300;SDS011;3183;51.010;6.898;2022-09-27T04:08:51;4.23;;;2.13;;
6300;SDS011;3183;51.010;6.898;2022-09-27T04:11:18;2.33;;;1.70;;
6300;SDS011;3183;51.010;6.898;2022-09-27T04:13:48;2.13;;;1.87;;
6300;SDS011;3183;51.010;6.898;2022-09-27T04:16:15;2.60;;;1.80;;
6300;SDS011;3183;51.010;6.898;2022-09-27T04:18:43;6.40;;;2.47;;
6300;SDS011;3183;51.010;6.898;2022-09-27T04:21:10;4.57;;;2.23;;
6300;SDS011;3183;51.010;6.898;2022-09-27T04:23:38;6.00;;;1.80;;
6300;SDS011;3183;51.010;6.898;2022-09-27T04:26:06;4.20;;;2.47;;
6300;SDS011;3183;51.010;6.898;2022-09-27T04:28:33;3.10;;;2.10;;
6300;SDS011;3183;51.010;6.898;2022-09-27T04:31:02;5.27;;;2.20;;
6300;SDS011;3183;51.010;6.898;2022-09-27T04:33:29;3.37;;;2.23;;
6300;SDS011;3183;51.010;6.898;2022-09-27T04:35:57;3.93;;;2.10;;
6300;SDS011;3183;51.010;6.898;2022-09-27T04:38:42;5.27;;;2.20;;
6300;SDS011;3183;51.010;6.898;2022-09-27T04:41:09;7.00;;;1.87;;
6300;SDS011;3183;51.010;6.898;2022-09-27T04:43:36;4.27;;;1.60;;
6300;SDS011;3183;51.010;6.898;2022-09-27T04:46:05;7.63;;;1.87;;
6300;SDS011;3183;51.010;6.898;2022-09-27T04:48:32;8.17;;;2.90;;
6300;SDS011;3183;51.010;6.898;2022-09-27T04:51:00;2.33;;;1.70;;
6300;SDS011;3183;51.010;6.898;2022-09-27T04:53:27;3.30;;;2.30;;
6300;SDS011;3183;51.010;6.898;2022-09-27T04:55:55;7.50;;;2.37;;
6300;SDS011;3183;51.010;6.898;2022-09-27T04:58:23;4.07;;;1.93;;
6300;SDS011;3183;51.010;6.898;2022-09-27T05:00:50;9.10;;;2.77;;
6300;SDS011;3183;51.010;6.898;2022-09-27T05:03:21;6.00;;;2.43;;
6300;SDS011;3183;51.010;6.898;2022-09-27T05:05:48;3.87;;;2.10;;
6300;SDS011;3183;51.010;6.898;2022-09-27T05:08:15;5.60;;;2.60;;
6300;SDS011;3183;51.010;6.898;2022-09-27T05:10:42;4.50;;;2.40;;
6300;SDS011;3183;51.010;6.898;2022-09-27T05:13:11;5.83;;;2.37;;
6300;SDS011;3183;51.010;6.898;2022-09-27T05:15:38;3.77;;;2.70;;
6300;SDS011;3183;51.010;6.898;2022-09-27T05:18:06;4.30;;;1.83;;
6300;SDS011;3183;51.010;6.898;2022-09-27T05:20:35;4.90;;;1.90;;
6300;SDS011;3183;51.010;6.898;2022-09-27T05:23:03;10.70;;;2.23;;
6300;SDS011;3183;51.010;6.898;2022-09-27T05:25:31;4.13;;;2.20;;
6300;SDS011;3183;51.010;6.898;2022-09-27T05:27:58;8.40;;;2.27;;
6300;SDS011;3183;51.010;6.898;2022-09-27T05:30:26;4.87;;;1.40;;
6300;SDS011;3183;51.010;6.898;2022-09-27T05:32:53;3.27;;;1.50;;
6300;SDS011;3183;51.010;6.898;2022-09-27T05:35:20;10.43;;;1.97;;
6300;SDS011;3183;51.010;6.898;2022-09-27T05:37:52;5.03;;;1.33;;
6300;SDS011;3183;51.010;6.898;2022-09-27T05:40:20;3.23;;;1.17;;
6300;SDS011;3183;51.010;6.898;2022-09-27T05:42:48;8.70;;;2.00;;
6300;SDS011;3183;51.010;6.898;2022-09-27T05:45:16;3.37;;;1.50;;
6300;SDS011;3183;51.010;6.898;2022-09-27T05:47:43;2.70;;;1.80;;
6300;SDS011;3183;51.010;6.898;2022-09-27T05:50:18;2.40;;;1.60;;
6300;SDS011;3183;51.010;6.898;2022-09-27T05:52:45;8.30;;;3.00;;
6300;SDS011;3183;51.010;6.898;2022-09-27T05:55:14;3.70;;;1.90;;
6300;SDS011;3183;51.010;6.898;2022-09-27T05:57:41;4.87;;;2.40;;
6300;SDS011;3183;51.010;6.898;2022-09-27T06:00:09;6.53;;;2.10;;
6300;SDS011;3183;51.010;6.898;2022-09-27T06:02:36;5.43;;;3.10;;
6300;SDS011;3183;51.010;6.898;2022-09-27T06:05:03;1.93;;;1.73;;
6300;SDS011;3183;51.010;6.898;2022-09-27T06:07:31;9.63;;;2.13;;
6300;SDS011;3183;51.010;6.898;2022-09-27T06:09:59;7.53;;;2.87;;
6300;SDS011;3183;51.010;6.898;2022-09-27T06:12:27;3.83;;;2.13;;
6300;SDS011;3183;51.010;6.898;2022-09-27T06:14:55;6.03;;;2.63;;
6300;SDS011;3183;51.010;6.898;2022-09-27T06:17:22;10.90;;;3.10;;
6300;SDS011;3183;51.010;6.898;2022-09-27T06:19:49;5.33;;;2.80;;
6300;SDS011;3183;51.010;6.898;2022-09-27T06:22:16;8.03;;;4.07;;
6300;SDS011;3183;51.010;6.898;2022-09-27T06:24:46;4.63;;;3.17;;
6300;SDS011;3183;51.010;6.898;2022-09-27T06:27:13;7.60;;;3.13;;
6300;SDS011;3183;51.010;6.898;2022-09-27T06:29:42;7.30;;;2.90;;
6300;SDS011;3183;51.010;6.898;2022-09-27T06:32:10;8.73;;;3.60;;
6300;SDS011;3183;51.010;6.898;2022-09-27T06:34:37;4.97;;;2.93;;
6300;SDS011;3183;51.010;6.898;2022-09-27T06:37:05;3.20;;;2.13;;
6300;SDS011;3183;51.010;6.898;2022-09-27T06:39:33;6.03;;;1.97;;
6300;SDS011;3183;51.010;6.898;2022-09-27T06:42:00;4.03;;;1.83;;
6300;SDS011;3183;51.010;6.898;2022-09-27T06:44:27;3.60;;;1.67;;
6300;SDS011;3183;51.010;6.898;2022-09-27T06:46:55;6.23;;;2.03;;
6300;SDS011;3183;51.010;6.898;2022-09-27T06:49:23;5.50;;;1.57;;
6300;SDS011;3183;51.010;6.898;2022-09-27T06:51:50;4.00;;;1.60;;
6300;SDS011;3183;51.010;6.898;2022-09-27T06:54:18;2.27;;;1.27;;
6300;SDS011;3183;51.010;6.898;2022-09-27T06:56:46;4.40;;;1.10;;
6300;SDS011;3183;51.010;6.898;2022-09-27T06:59:13;3.93;;;1.20;;
6300;SDS011;3183;51.010;6.898;2022-09-27T07:01:59;6.57;;;1.27;;
6300;SDS011;3183;51.010;6.898;2022-09-27T07:04:26;3.90;;;1.30;;
6300;SDS011;3183;51.010;6.898;2022-09-27T07:06:54;2.17;;;0.90;;
6300;SDS011;3183;51.010;6.898;2022-09-27T07:09:21;2.40;;;1.00;;
6300;SDS011;3183;51.010;6.898;2022-09-27T07:11:48;8.23;;;1.60;;
6300;SDS011;3183;51.010;6.898;2022-09-27T07:14:15;4.90;;;1.00;;
6300;SDS011;3183;51.010;6.898;2022-09-27T07:16:43;4.17;;;1.70;;
6300;SDS011;3183;51.010;6.898;2022-09-27T07:19:12;3.73;;;1.07;;
6300;SDS011;3183;51.010;6.898;2022-09-27T07:21:39;1.47;;;0.90;;
6300;SDS011;3183;51.010;6.898;2022-09-27T07:24:07;1.00;;;0.70;;
6300;SDS011;3183;51.010;6.898;2022-09-27T07:26:34;3.67;;;0.90;;
6300;SDS011;3183;51.010;6.898;2022-09-27T07:29:01;2.70;;;0.83;;
6300;SDS011;3183;51.010;6.898;2022-09-27T07:31:29;2.20;;;0.80;;
6300;SDS011;3183;51.010;6.898;2022-09-27T07:33:56;2.30;;;0.70;;
6300;SDS011;3183;51.010;6.898;2022-09-27T07:36:25;1.30;;;0.70;;
6300;SDS011;3183;51.010;6.898;2022-09-27T07:38:52;1.10;;;0.70;;
6300;SDS011;3183;51.010;6.898;2022-09-27T07:41:20;2.50;;;1.03;;
6300;SDS011;3183;51.010;6.898;2022-09-27T07:43:47;2.23;;;0.70;;
6300;SDS011;3183;51.010;6.898;2022-09-27T07:46:14;2.60;;;1.00;;
6300;SDS011;3183;51.010;6.898;2022-09-27T07:48:42;0.90;;;0.60;;
6300;SDS011;3183;51.010;6.898;2022-09-27T07:51:10;3.20;;;1.57;;
6300;SDS011;3183;51.010;6.898;2022-09-27T07:53:39;6.13;;;1.20;;
6300;SDS011;3183;51.010;6.898;2022-09-27T07:56:06;1.20;;;0.97;;
6300;SDS011;3183;51.010;6.898;2022-09-27T07:58:33;2.70;;;0.90;;
6300;SDS011;3183;51.010;6.898;2022-09-27T08:01:01;4.20;;;1.30;;
6300;SDS011;3183;51.010;6.898;2022-09-27T08:03:28;3.33;;;2.03;;
6300;SDS011;3183;51.010;6.898;2022-09-27T08:05:55;2.40;;;1.10;;
6300;SDS011;3183;51.010;6.898;2022-09-27T08:08:23;2.80;;;1.57;;
6300;SDS011;3183;51.010;6.898;2022-09-27T08:10:52;1.97;;;1.27;;
6300;SDS011;3183;51.010;6.898;2022-09-27T08:13:19;2.60;;;1.10;;
6300;SDS011;3183;51.010;6.898;2022-09-27T08:15:47;2.10;;;1.30;;
6300;SDS011;3183;51.010;6.898;2022-09-27T08:18:16;2.00;;;1.47;;
6300;SDS011;3183;51.010;6.898;2022-09-27T08:20:46;8.70;;;1.27;;
6300;SDS011;3183;51.010;6.898;2022-09-27T08:23:13;3.20;;;1.00;;
6300;SDS011;3183;51.010;6.898;2022-09-27T08:25:40;2.50;;;1.60;;
6300;SDS011;3183;51.010;6.898;2022-09-27T08:28:09;2.60;;;1.10;;
6300;SDS011;3183;51.010;6.898;2022-09-27T08:30:36;1.67;;;1.00;;
6300;SDS011;3183;51.010;6.898;2022-09-27T08:33:04;2.47;;;1.40;;
6300;SDS011;3183;51.010;6.898;2022-09-27T08:35:31;3.27;;;1.33;;
6300;SDS011;3183;51.010;6.898;2022-09-27T08:37:59;1.73;;;1.30;;
6300;SDS011;3183;51.010;6.898;2022-09-27T08:40:30;4.93;;;1.43;;
6300;SDS011;3183;51.010;6.898;2022-09-27T08:42:59;1.70;;;0.83;;
6300;SDS011;3183;51.010;6.898;2022-09-27T08:45:30;4.83;;;1.27;;
6300;SDS011;3183;51.010;6.898;2022-09-27T08:47:59;3.17;;;0.73;;
6300;SDS011;3183;51.010;6.898;2022-09-27T08:50:28;2.50;;;0.87;;
6300;SDS011;3183;51.010;6.898;2022-09-27T08:52:59;1.40;;;0.70;;
6300;SDS011;3183;51.010;6.898;2022-09-27T08:55:29;1.43;;;0.80;;
6300;SDS011;3183;51.010;6.898;2022-09-27T08:58:01;2.00;;;0.70;;
6300;SDS011;3183;51.010;6.898;2022-09-27T09:00:32;1.67;;;0.90;;
6300;SDS011;3183;51.010;6.898;2022-09-27T09:03:00;1.57;;;0.90;;
6300;SDS011;3183;51.010;6.898;2022-09-27T09:05:28;1.67;;;1.10;;
6300;SDS011;3183;51.010;6.898;2022-09-27T09:08:02;1.10;;;0.70;;
6300;SDS011;3183;51.010;6.898;2022-09-27T09:10:38;1.27;;;0.70;;
6300;SDS011;3183;51.010;6.898;2022-09-27T09:13:30;1.93;;;0.93;;
6300;SDS011;3183;51.010;6.898;2022-09-27T09:16:03;2.03;;;1.37;;
6300;SDS011;3183;51.010;6.898;2022-09-27T09:18:35;4.77;;;1.37;;
6300;SDS011;3183;51.010;6.898;2022-09-27T09:21:08;2.80;;;1.07;;
6300;SDS011;3183;51.010;6.898;2022-09-27T09:23:41;4.57;;;1.30;;
6300;SDS011;3183;51.010;6.898;2022-09-27T09:26:13;6.00;;;1.23;;
6300;SDS011;3183;51.010;6.898;2022-09-27T09:28:48;4.90;;;1.43;;
6300;SDS011;3183;51.010;6.898;2022-09-27T09:31:21;1.80;;;1.33;;
6300;SDS011;3183;51.010;6.898;2022-09-27T09:33:51;3.80;;;1.60;;
6300;SDS011;3183;51.010;6.898;2022-09-27T09:36:22;2.60;;;1.17;;
6300;SDS011;3183;51.010;6.898;2022-09-27T09:38:51;2.07;;;1.03;;
6300;SDS011;3183;51.010;6.898;2022-09-27T09:41:20;2.03;;;1.40;;
6300;SDS011;3183;51.010;6.898;2022-09-27T09:43:49;1.80;;;1.17;;
6300;SDS011;3183;51.010;6.898;2022-09-27T09:46:20;1.30;;;1.20;;
6300;SDS011;3183;51.010;6.898;2022-09-27T09:48:50;8.93;;;2.00;;
6300;SDS011;3183;51.010;6.898;2022-09-27T09:51:23;5.23;;;1.80;;
6300;SDS011;3183;51.010;6.898;2022-09-27T09:53:53;2.30;;;1.67;;
6300;SDS011;3183;51.010;6.898;2022-09-27T09:56:23;4.93;;;2.47;;
6300;SDS011;3183;51.010;6.898;2022-09-27T09:58:53;2.23;;;1.60;;
6300;SDS011;3183;51.010;6.898;2022-09-27T10:01:32;3.00;;;1.43;;
6300;SDS011;3183;51.010;6.898;2022-09-27T10:03:59;4.50;;;1.27;;
6300;SDS011;3183;51.010;6.898;2022-09-27T10:06:27;3.57;;;1.63;;
6300;SDS011;3183;51.010;6.898;2022-09-27T10:08:55;2.80;;;1.57;;
6300;SDS011;3183;51.010;6.898;2022-09-27T10:11:23;4.27;;;1.40;;
6300;SDS011;3183;51.010;6.898;2022-09-27T10:13:51;3.30;;;1.50;;
6300;SDS011;3183;51.010;6.898;2022-09-27T10:16:19;1.67;;;1.30;;
6300;SDS011;3183;51.010;6.898;2022-09-27T10:18:48;4.97;;;1.67;;
6300;SDS011;3183;51.010;6.898;2022-09-27T10:21:18;2.80;;;1.10;;
6300;SDS011;3183;51.010;6.898;2022-09-27T10:24:05;1.73;;;1.00;;
6300;SDS011;3183;51.010;6.898;2022-09-27T10:26:34;3.70;;;1.50;;
6300;SDS011;3183;51.010;6.898;2022-09-27T10:29:13;1.20;;;1.10;;
6300;SDS011;3183;51.010;6.898;2022-09-27T10:31:44;6.07;;;1.67;;
6300;SDS011;3183;51.010;6.898;2022-09-27T10:34:19;2.50;;;1.53;;
6300;SDS011;3183;51.010;6.898;2022-09-27T10:36:48;1.60;;;1.50;;
6300;SDS011;3183;51.010;6.898;2022-09-27T10:39:27;3.90;;;2.17;;
6300;SDS011;3183;51.010;6.898;2022-09-27T10:41:54;4.40;;;1.70;;
6300;SDS011;3183;51.010;6.898;2022-09-27T10:44:23;6.63;;;2.70;;
6300;SDS011;3183;51.010;6.898;2022-09-27T10:46:51;3.93;;;2.27;;
6300;SDS011;3183;51.010;6.898;2022-09-27T10:49:21;4.90;;;2.40;;
6300;SDS011;3183;51.010;6.898;2022-09-27T10:51:53;7.83;;;2.30;;
6300;SDS011;3183;51.010;6.898;2022-09-27T10:54:21;3.97;;;2.50;;
6300;SDS011;3183;51.010;6.898;2022-09-27T10:56:55;8.97;;;3.20;;
6300;SDS011;3183;51.010;6.898;2022-09-27T10:59:24;9.37;;;2.67;;
6300;SDS011;3183;51.010;6.898;2022-09-27T11:01:54;8.97;;;2.90;;
6300;SDS011;3183;51.010;6.898;2022-09-27T11:04:28;16.00;;;4.03;;
6300;SDS011;3183;51.010;6.898;2022-09-27T11:07:08;22.83;;;4.10;;
6300;SDS011;3183;51.010;6.898;2022-09-27T11:09:44;35.10;;;5.50;;
6300;SDS011;3183;51.010;6.898;2022-09-27T11:12:12;13.00;;;4.20;;
6300;SDS011;3183;51.010;6.898;2022-09-27T11:14:42;6.30;;;2.80;;
6300;SDS011;3183;51.010;6.898;2022-09-27T11:17:14;5.80;;;3.00;;
6300;SDS011;3183;51.010;6.898;2022-09-27T11:19:51;6.77;;;2.93;;
6300;SDS011;3183;51.010;6.898;2022-09-27T11:22:29;4.73;;;3.30;;
6300;SDS011;3183;51.010;6.898;2022-09-27T11:25:04;5.27;;;2.90;;
6300;SDS011;3183;51.010;6.898;2022-09-27T11:27:36;5.60;;;2.73;;
6300;SDS011;3183;51.010;6.898;2022-09-27T11:30:07;4.17;;;2.80;;
6300;SDS011;3183;51.010;6.898;2022-09-27T11:32:40;4.50;;;2.93;;
6300;SDS011;3183;51.010;6.898;2022-09-27T11:35:18;3.80;;;2.50;;
6300;SDS011;3183;51.010;6.898;2022-09-27T11:37:51;6.77;;;2.80;;
6300;SDS011;3183;51.010;6.898;2022-09-27T11:40:26;2.93;;;2.40;;
6300;SDS011;3183;51.010;6.898;2022-09-27T11:43:03;12.60;;;4.13;;
6300;SDS011;3183;51.010;6.898;2022-09-27T11:45:39;5.10;;;2.90;;
6300;SDS011;3183;51.010;6.898;2022-09-27T11:48:12;23.83;;;4.40;;
6300;SDS011;3183;51.010;6.898;2022-09-27T11:50:49;4.87;;;3.20;;
6300;SDS011;3183;51.010;6.898;2022-09-27T11:53:23;5.87;;;2.40;;
6300;SDS011;3183;51.010;6.898;2022-09-27T11:55:55;4.53;;;3.07;;
6300;SDS011;3183;51.010;6.898;2022-09-27T11:58:29;6.80;;;3.33;;
6300;SDS011;3183;51.010;6.898;2022-09-27T12:01:02;11.20;;;3.83;;
6300;SDS011;3183;51.010;6.898;2022-09-27T12:03:39;9.67;;;3.40;;
6300;SDS011;3183;51.010;6.898;2022-09-27T12:06:14;15.40;;;5.90;;
6300;SDS011;3183;51.010;6.898;2022-09-27T12:08:55;16.60;;;3.77;;
6300;SDS011;3183;51.010;6.898;2022-09-27T12:11:24;16.97;;;4.07;;
6300;SDS011;3183;51.010;6.898;2022-09-27T12:13:53;12.07;;;3.60;;
6300;SDS011;3183;51.010;6.898;2022-09-27T12:16:22;11.60;;;3.30;;
6300;SDS011;3183;51.010;6.898;2022-09-27T12:18:51;4.87;;;3.20;;
6300;SDS011;3183;51.010;6.898;2022-09-27T12:21:20;8.83;;;2.70;;
6300;SDS011;3183;51.010;6.898;2022-09-27T12:23:48;6.90;;;2.83;;
6300;SDS011;3183;51.010;6.898;2022-09-27T12:26:17;8.00;;;2.70;;
6300;SDS011;3183;51.010;6.898;2022-09-27T12:28:47;13.80;;;3.00;;
6300;SDS011;3183;51.010;6.898;2022-09-27T12:31:17;3.67;;;2.40;;
6300;SDS011;3183;51.010;6.898;2022-09-27T12:33:48;3.13;;;2.43;;
6300;SDS011;3183;51.010;6.898;2022-09-27T12:36:17;4.27;;;2.43;;
6300;SDS011;3183;51.010;6.898;2022-09-27T12:38:49;6.10;;;2.70;;
6300;SDS011;3183;51.010;6.898;2022-09-27T12:41:20;7.30;;;2.07;;
6300;SDS011;3183;51.010;6.898;2022-09-27T12:43:48;6.77;;;2.67;;
6300;SDS011;3183;51.010;6.898;2022-09-27T12:46:19;2.77;;;1.70;;
6300;SDS011;3183;51.010;6.898;2022-09-27T12:48:51;4.10;;;2.10;;
6300;SDS011;3183;51.010;6.898;2022-09-27T12:51:21;3.60;;;1.77;;
6300;SDS011;3183;51.010;6.898;2022-09-27T12:53:55;5.50;;;2.17;;
6300;SDS011;3183;51.010;6.898;2022-09-27T12:56:36;4.40;;;1.30;;
6300;SDS011;3183;51.010;6.898;2022-09-27T12:59:12;7.13;;;1.50;;
6300;SDS011;3183;51.010;6.898;2022-09-27T13:01:49;5.00;;;1.40;;
6300;SDS011;3183;51.010;6.898;2022-09-27T13:04:31;1.53;;;1.30;;
6300;SDS011;3183;51.010;6.898;2022-09-27T13:07:08;5.57;;;1.50;;
6300;SDS011;3183;51.010;6.898;2022-09-27T13:12:21;4.60;;;3.10;;
6300;SDS011;3183;51.010;6.898;2022-09-27T13:14:56;4.40;;;1.60;;
6300;SDS011;3183;51.010;6.898;2022-09-27T13:17:31;3.50;;;0.97;;
6300;SDS011;3183;51.010;6.898;2022-09-27T13:20:00;2.50;;;1.10;;
6300;SDS011;3183;51.010;6.898;2022-09-27T13:22:47;3.83;;;1.30;;
6300;SDS011;3183;51.010;6.898;2022-09-27T13:27:59;8.40;;;2.37;;
6300;SDS011;3183;51.010;6.898;2022-09-27T13:36:17;5.30;;;2.30;;
6300;SDS011;3183;51.010;6.898;2022-09-27T13:38:55;5.27;;;1.73;;
6300;SDS011;3183;51.010;6.898;2022-09-27T13:41:25;3.47;;;2.30;;
6300;SDS011;3183;51.010;6.898;2022-09-27T13:43:59;3.27;;;1.83;;
6300;SDS011;3183;51.010;6.898;2022-09-27T13:46:31;3.30;;;1.97;;
6300;SDS011;3183;51.010;6.898;2022-09-27T13:49:01;3.50;;;1.30;;
6300;SDS011;3183;51.010;6.898;2022-09-27T13:51:33;1.57;;;0.90;;
6300;SDS011;3183;51.010;6.898;2022-09-27T13:54:02;1.00;;;0.80;;
6300;SDS011;3183;51.010;6.898;2022-09-27T13:56:47;3.97;;;2.63;;
6300;SDS011;3183;51.010;6.898;2022-09-27T13:59:16;1.70;;;0.87;;
6300;SDS011;3183;51.010;6.898;2022-09-27T14:01:46;7.20;;;1.03;;
6300;SDS011;3183;51.010;6.898;2022-09-27T14:04:16;4.40;;;1.10;;
6300;SDS011;3183;51.010;6.898;2022-09-27T14:06:46;2.17;;;0.80;;
6300;SDS011;3183;51.010;6.898;2022-09-27T14:09:17;2.13;;;0.70;;
6300;SDS011;3183;51.010;6.898;2022-09-27T14:11:47;2.53;;;1.03;;
6300;SDS011;3183;51.010;6.898;2022-09-27T14:14:18;3.73;;;1.77;;
6300;SDS011;3183;51.010;6.898;2022-09-27T14:16:47;2.50;;;1.03;;
6300;SDS011;3183;51.010;6.898;2022-09-27T14:19:15;5.30;;;1.10;;
6300;SDS011;3183;51.010;6.898;2022-09-27T14:21:43;6.00;;;1.10;;
6300;SDS011;3183;51.010;6.898;2022-09-27T14:24:19;4.57;;;1.40;;
6300;SDS011;3183;51.010;6.898;2022-09-27T14:26:46;3.67;;;1.17;;
6300;SDS011;3183;51.010;6.898;2022-09-27T14:29:19;3.10;;;1.10;;
6300;SDS011;3183;51.010;6.898;2022-09-27T14:31:46;1.03;;;0.80;;
6300;SDS011;3183;51.010;6.898;2022-09-27T14:34:28;4.70;;;1.17;;
6300;SDS011;3183;51.010;6.898;2022-09-27T14:36:55;3.30;;;1.47;;
6300;SDS011;3183;51.010;6.898;2022-09-27T14:39:40;2.97;;;1.27;;
6300;SDS011;3183;51.010;6.898;2022-09-27T14:42:16;4.40;;;1.10;;
6300;SDS011;3183;51.010;6.898;2022-09-27T14:44:46;3.67;;;0.97;;
6300;SDS011;3183;51.010;6.898;2022-09-27T14:47:16;8.50;;;1.27;;
6300;SDS011;3183;51.010;6.898;2022-09-27T14:49:47;2.10;;;1.03;;
6300;SDS011;3183;51.010;6.898;2022-09-27T14:52:15;1.73;;;1.00;;
6300;SDS011;3183;51.010;6.898;2022-09-27T14:54:53;3.20;;;1.10;;
6300;SDS011;3183;51.010;6.898;2022-09-27T14:57:21;4.00;;;0.73;;
6300;SDS011;3183;51.010;6.898;2022-09-27T14:59:49;10.13;;;1.47;;
6300;SDS011;3183;51.010;6.898;2022-09-27T15:02:17;3.00;;;1.40;;
6300;SDS011;3183;51.010;6.898;2022-09-27T15:04:46;6.27;;;1.70;;
6300;SDS011;3183;51.010;6.898;2022-09-27T15:07:17;5.03;;;1.47;;
6300;SDS011;3183;51.010;6.898;2022-09-27T15:09:46;15.43;;;1.50;;
6300;SDS011;3183;51.010;6.898;2022-09-27T15:12:16;3.00;;;1.50;;
6300;SDS011;3183;51.010;6.898;2022-09-27T15:14:46;4.50;;;1.73;;
6300;SDS011;3183;51.010;6.898;2022-09-27T15:17:16;3.80;;;1.80;;
6300;SDS011;3183;51.010;6.898;2022-09-27T15:19:57;9.50;;;1.80;;
6300;SDS011;3183;51.010;6.898;2022-09-27T15:22:35;11.13;;;2.00;;
6300;SDS011;3183;51.010;6.898;2022-09-27T15:25:10;11.97;;;1.90;;
6300;SDS011;3183;51.010;6.898;2022-09-27T15:27:45;7.27;;;2.60;;
6300;SDS011;3183;51.010;6.898;2022-09-27T15:30:15;12.07;;;2.23;;
6300;SDS011;3183;51.010;6.898;2022-09-27T15:32:47;13.87;;;1.60;;
6300;SDS011;3183;51.010;6.898;2022-09-27T15:35:17;7.07;;;2.80;;
6300;SDS011;3183;51.010;6.898;2022-09-27T15:37:46;6.43;;;2.30;;
6300;SDS011;3183;51.010;6.898;2022-09-27T15:42:59;6.83;;;1.67;;
6300;SDS011;3183;51.010;6.898;2022-09-27T15:45:27;2.70;;;1.40;;
6300;SDS011;3183;51.010;6.898;2022-09-27T15:47:55;1.87;;;1.00;;
6300;SDS011;3183;51.010;6.898;2022-09-27T15:50:36;4.10;;;0.80;;